Time;durP1;ratioP1;P1;durP2;ratioP2;P2;SDS_P1;SDS_P2;PMS_P1;PMS_P2;Temp;Humidity;BMP_temperature;BMP_pressure;BME280_temperature;BME280_humidity;BME280_pressure;Samples;Min_cycle;Max_cycle;Signal;HPM_P1;HPM_P2
2021/10/09 00:00:45;;;;;;;27.30;16.63;;;;;;;11.50;44.41;101928.81;3381601;29;20119;-72
2021/10/09 00:02:25;;;;;;;33.30;17.33;;;;;;;11.42;44.68;101920.69;3380166;29;20048;-75
2021/10/09 00:04:06;;;;;;;29.38;16.58;;;;;;;11.39;44.64;101913.81;3380098;29;20059;-73
2021/10/09 00:05:47;;;;;;;31.17;17.10;;;;;;;11.46;44.69;101922.06;3380530;29;20044;-72
2021/10/09 00:07:28;;;;;;;28.75;16.00;;;;;;;11.54;44.64;101919.53;3377200;29;20147;-72
2021/10/09 00:09:10;;;;;;;26.88;16.63;;;;;;;11.59;44.51;101922.63;3378812;29;20047;-72
2021/10/09 00:10:51;;;;;;;26.35;15.52;;;;;;;11.64;44.42;101922.16;3380882;29;20056;-71
2021/10/09 00:12:31;;;;;;;31.23;17.50;;;;;;;11.55;44.49;101921.22;3377432;29;20044;-72
2021/10/09 00:14:13;;;;;;;29.92;18.05;;;;;;;11.38;44.66;101914.78;3376963;29;20071;-73
2021/10/09 00:15:54;;;;;;;;;;;;;;;11.40;44.43;101923.50;3377579;29;20413;-73
2021/10/09 00:17:37;;;;;;;24.77;16.02;;;;;;;11.21;44.76;101915.56;3377027;29;19922;-73
2021/10/09 00:19:18;;;;;;;29.13;16.50;;;;;;;11.17;45.03;101917.66;3377006;29;20096;-74
2021/10/09 00:20:59;;;;;;;32.65;18.02;;;;;;;11.07;45.21;101914.16;3377164;29;20516;-73
2021/10/09 00:22:39;;;;;;;32.22;19.05;;;;;;;10.95;45.65;101915.31;3376860;29;20520;-72
2021/10/09 00:24:20;;;;;;;30.90;17.13;;;;;;;10.83;45.86;101910.09;3401995;29;20127;-73
2021/10/09 00:26:01;;;;;;;37.53;17.88;;;;;;;10.78;46.02;101911.53;3381973;29;20045;-73
2021/10/09 00:27:41;;;;;;;30.85;16.13;;;;;;;10.80;46.15;101910.41;3376758;29;20412;-73
2021/10/09 00:29:22;;;;;;;28.38;16.38;;;;;;;10.87;46.26;101908.84;3377309;29;20060;-73
2021/10/09 00:31:03;;;;;;;30.75;17.05;;;;;;;10.93;45.76;101909.28;3376996;29;20131;-73
2021/10/09 00:32:44;;;;;;;29.77;16.92;;;;;;;10.97;45.69;101903.53;3376863;29;20515;-72
2021/10/09 00:34:24;;;;;;;34.10;17.15;;;;;;;10.94;45.81;101901.09;3376993;29;20036;-73
2021/10/09 00:36:05;;;;;;;25.75;16.88;;;;;;;10.85;45.92;101901.97;3376881;29;20133;-72
2021/10/09 00:37:46;;;;;;;27.35;16.90;;;;;;;10.84;45.82;101901.16;3388757;29;20048;-73
2021/10/09 00:39:27;;;;;;;28.02;17.08;;;;;;;10.84;45.65;101894.94;3379434;29;20579;-74
2021/10/09 00:41:07;;;;;;;33.47;18.42;;;;;;;10.93;45.57;101899.44;3376836;29;20056;-74
2021/10/09 00:42:48;;;;;;;29.70;16.77;;;;;;;10.99;45.29;101895.34;3376812;29;20048;-73
2021/10/09 00:44:29;;;;;;;30.98;17.55;;;;;;;11.09;45.10;101893.50;3376720;29;20086;-73
2021/10/09 00:46:09;;;;;;;28.23;16.38;;;;;;;11.19;44.92;101898.84;3375849;29;20044;-73
2021/10/09 00:47:51;;;;;;;30.35;16.30;;;;;;;11.23;44.69;101893.06;3373177;29;20037;-73
2021/10/09 00:49:32;;;;;;;28.42;17.55;;;;;;;11.29;44.56;101895.16;3376500;29;20048;-73
2021/10/09 00:51:13;;;;;;;27.63;16.50;;;;;;;11.31;44.61;101893.19;3376382;29;20040;-74
2021/10/09 00:52:55;;;;;;;28.27;17.60;;;;;;;11.27;44.74;101891.78;3376915;29;20595;-73
2021/10/09 00:54:47;;;;;;;22.70;15.82;;;;;;;11.17;45.12;101890.97;3388862;29;20048;-73
2021/10/09 00:56:29;;;;;;;31.02;17.00;;;;;;;11.02;45.21;101887.06;3377986;29;20131;-73
2021/10/09 00:58:09;;;;;;;31.92;17.17;;;;;;;10.96;45.18;101891.13;3376540;29;20497;-72
2021/10/09 00:59:51;;;;;;;31.10;17.40;;;;;;;10.96;45.12;101892.97;3388467;29;20078;-73
2021/10/09 01:01:31;;;;;;;32.38;18.20;;;;;;;11.00;45.12;101891.72;3375665;29;20040;-72
2021/10/09 01:03:13;;;;;;;30.40;16.80;;;;;;;11.10;44.80;101901.38;3373056;29;20056;-73
2021/10/09 01:04:55;;;;;;;30.65;16.02;;;;;;;11.13;44.87;101887.75;3376395;29;20419;-73
2021/10/09 01:06:36;;;;;;;28.40;16.38;;;;;;;11.10;45.13;101887.19;3376471;29;20568;-73
2021/10/09 01:08:16;;;;;;;32.95;18.00;;;;;;;10.98;45.13;101891.00;3376413;29;20083;-73
2021/10/09 01:09:58;;;;;;;31.70;17.10;;;;;;;10.94;45.28;101898.44;3401370;29;20043;-72
2021/10/09 01:11:40;;;;;;;;;;;;;;;11.07;44.86;101900.81;3378403;29;20045;-73
2021/10/09 01:13:21;;;;;;;27.15;16.63;;;;;;;11.09;44.62;101898.84;3374156;29;19960;-72
2021/10/09 01:15:29;;;;;;;29.13;16.92;;;;;;;11.15;45.13;101898.25;3385700;29;20168;-72
2021/10/09 01:17:12;;;;;;;30.63;16.67;;;;;;;11.15;45.04;101892.91;3375277;29;20049;-73
2021/10/09 01:18:56;;;;;;;30.88;18.23;;;;;;;11.19;45.07;101889.00;3372684;29;20076;-72
2021/10/09 01:20:48;;;;;;;29.15;17.20;;;;;;;11.20;45.00;101888.00;3372709;29;20045;-71
2021/10/09 01:22:29;;;;;;;29.75;16.58;;;;;;;11.08;45.10;101889.16;3376098;29;20049;-72
2021/10/09 01:24:11;;;;;;;39.88;17.85;;;;;;;10.93;45.39;101888.75;3375122;29;20052;-72
2021/10/09 01:25:52;;;;;;;;;;;;;;;10.94;45.17;101894.94;3373012;29;20052;-71
2021/10/09 01:27:34;;;;;;;33.55;17.30;;;;;;;10.80;45.76;101888.22;3385813;29;20382;-71
2021/10/09 01:29:15;;;;;;;29.83;17.52;;;;;;;10.82;45.57;101887.09;3375057;29;20040;-73
2021/10/09 01:31:00;;;;;;;36.15;16.67;;;;;;;10.86;45.39;101883.16;3373158;29;20081;-72
2021/10/09 01:32:41;;;;;;;27.35;17.48;;;;;;;10.85;45.80;101883.31;3372314;29;20044;-73
2021/10/09 01:34:24;;;;;;;30.88;17.48;;;;;;;10.82;45.93;101881.75;3385486;29;20047;-73
2021/10/09 01:36:14;;;;;;;30.85;18.35;;;;;;;10.76;45.88;101882.31;3375043;29;20442;-73
2021/10/09 01:38:00;;;;;;;30.55;17.73;;;;;;;10.64;45.95;101883.47;3361194;29;20141;-72
2021/10/09 01:39:46;;;;;;;33.25;17.73;;;;;;;10.53;46.48;101887.09;3370408;29;20045;-72
2021/10/09 01:41:37;;;;;;;30.90;17.95;;;;;;;10.45;46.85;101876.28;3373617;29;21305;-70
2021/10/09 01:43:19;;;;;;;34.95;18.67;;;;;;;10.51;46.46;101878.41;3372760;29;20052;-71
2021/10/09 01:45:00;;;;;;;30.05;16.80;;;;;;;10.60;46.04;101879.38;3375837;29;20467;-72
2021/10/09 01:46:41;;;;;;;25.20;16.45;;;;;;;10.69;45.68;101875.88;3374815;29;20059;-72
2021/10/09 01:48:34;;;;;;;30.83;17.88;;;;;;;10.83;45.42;101883.44;3359422;29;20053;-72
2021/10/09 01:50:16;;;;;;;29.15;17.95;;;;;;;10.85;45.09;101876.13;3373103;29;20048;-73
2021/10/09 01:51:56;;;;;;;30.42;17.90;;;;;;;10.82;45.39;101871.09;3372236;29;20049;-73
2021/10/09 01:53:38;;;;;;;26.30;16.48;;;;;;;10.77;45.31;101873.34;3375697;29;20416;-73
2021/10/09 01:55:19;;;;;;;27.85;17.98;;;;;;;10.64;45.84;101875.47;3374609;29;20047;-73
2021/10/09 01:57:01;;;;;;;31.55;18.80;;;;;;;10.52;46.05;101876.59;3375531;29;20040;-74
2021/10/09 01:58:42;;;;;;;26.98;16.25;;;;;;;10.43;46.17;101878.28;3374765;29;20040;-73
2021/10/09 02:00:28;;;;;;;26.27;16.38;;;;;;;10.46;45.99;101878.81;3372604;29;20050;-73
2021/10/09 02:02:09;;;;;;;29.25;16.55;;;;;;;10.46;46.28;101876.16;3372162;29;20429;-73
2021/10/09 02:03:52;;;;;;;31.65;17.30;;;;;;;10.35;46.13;101873.63;3372081;29;20130;-73
2021/10/09 02:05:35;;;;;;;25.90;16.02;;;;;;;10.23;46.33;101870.22;3372319;29;20045;-73
2021/10/09 02:07:20;;;;;;;;;;;;;;;10.29;46.34;101873.34;3372086;29;20088;-72
2021/10/09 02:09:01;;;;;;;31.42;14.90;;;;;;;10.16;46.36;101877.06;3398637;29;19922;-73
2021/10/09 02:10:57;;;;;;;25.00;16.27;;;;;;;10.20;46.55;101869.66;3364114;29;20045;-76
2021/10/09 02:12:38;;;;;;;22.98;14.82;;;;;;;10.32;46.49;101878.38;3373098;29;20571;-73
2021/10/09 02:14:25;;;;;;;25.08;15.45;;;;;;;10.42;45.91;101869.41;3384868;29;20091;-72
2021/10/09 02:25:48;;;;;;;24.38;13.80;;;;;;;10.37;46.63;101866.31;3375446;29;20425;-72
2021/10/09 02:27:31;;;;;;;23.10;14.98;;;;;;;10.41;46.58;101869.56;3375335;29;20040;-71
2021/10/09 02:29:11;;;;;;;27.38;14.07;;;;;;;10.45;46.84;101863.81;3374398;29;20415;-72
2021/10/09 02:30:54;;;;;;;23.02;14.32;;;;;;;10.46;46.53;101867.31;3371680;29;20048;-72
2021/10/09 02:32:36;;;;;;;23.13;15.43;;;;;;;10.43;46.49;101860.44;3375331;29;20044;-74
2021/10/09 02:34:17;;;;;;;21.65;13.80;;;;;;;10.35;46.68;101862.97;3374309;29;20040;-72
2021/10/09 02:35:58;;;;;;;25.42;15.00;;;;;;;10.23;46.85;101853.38;3375123;29;20036;-71
2021/10/09 02:37:40;;;;;;;27.52;14.88;;;;;;;10.09;46.85;101851.94;3374078;29;20053;-71
2021/10/09 02:39:21;;;;;;;26.52;15.18;;;;;;;9.98;46.86;101855.56;3371701;29;20045;-72
2021/10/09 02:41:01;;;;;;;28.42;15.52;;;;;;;9.97;46.95;101851.25;3374193;29;20138;-72
2021/10/09 02:42:42;;;;;;;22.58;13.68;;;;;;;10.02;46.67;101851.69;3384595;29;20067;-72
2021/10/09 02:44:23;;;;;;;25.92;15.35;;;;;;;10.07;46.63;101847.72;3377615;29;20168;-72
2021/10/09 02:46:03;;;;;;;24.65;15.00;;;;;;;10.00;46.69;101842.13;3374366;29;20068;-73
2021/10/09 02:47:49;;;;;;;27.27;14.48;;;;;;;9.89;47.23;101848.44;3385042;29;20579;-72
2021/10/09 02:49:30;;;;;;;25.23;16.65;;;;;;;9.85;46.98;101839.00;3374380;29;20040;-72
2021/10/09 02:51:11;;;;;;;31.90;16.50;;;;;;;9.85;47.18;101848.84;3375391;29;20085;-72
2021/10/09 02:52:52;;;;;;;28.65;13.40;;;;;;;9.78;47.11;101837.88;3361120;29;20152;-72
2021/10/09 02:54:32;;;;;;;32.22;17.13;;;;;;;9.83;47.04;101841.84;3372503;29;20051;-72
2021/10/09 02:56:15;;;;;;;28.35;14.85;;;;;;;9.95;46.73;101837.22;3374014;29;20049;-73
2021/10/09 02:57:55;;;;;;;22.40;13.00;;;;;;;10.08;46.64;101833.44;3371443;29;20079;-72
2021/10/09 02:59:36;;;;;;;24.52;14.63;;;;;;;10.17;46.05;101830.81;3371938;29;20136;-72
2021/10/09 03:01:18;;;;;;;23.67;13.95;;;;;;;10.26;46.01;101831.78;3371677;29;20428;-73
2021/10/09 03:02:59;;;;;;;23.42;14.75;;;;;;;10.28;46.12;101834.34;3371566;29;20040;-74
2021/10/09 03:04:40;;;;;;;24.83;14.73;;;;;;;10.22;46.04;101831.22;3384514;29;20044;-73
2021/10/09 03:06:21;;;;;;;21.85;14.13;;;;;;;10.07;46.45;101827.28;3373940;29;20115;-74
2021/10/09 03:08:03;;;;;;;23.35;14.63;;;;;;;10.05;46.48;101823.91;3371556;29;20053;-73
2021/10/09 03:09:44;;;;;;;30.80;14.88;;;;;;;10.04;46.64;101825.75;3358937;29;20040;-72
2021/10/09 03:11:24;;;;;;;22.70;14.00;;;;;;;10.11;46.14;101830.50;3368979;29;20048;-73
2021/10/09 03:13:05;;;;;;;30.65;18.63;;;;;;;10.09;46.07;101822.63;3375322;29;20049;-73
2021/10/09 03:14:46;;;;;;;30.67;16.65;;;;;;;10.18;46.21;101832.47;3373896;29;20044;-73
2021/10/09 03:16:27;;;;;;;28.13;15.48;;;;;;;10.21;46.19;101831.34;3374742;29;20040;-72
2021/10/09 03:18:10;;;;;;;25.35;15.20;;;;;;;10.27;46.04;101830.78;3373979;29;20071;-73
2021/10/09 03:19:51;;;;;;;27.03;14.73;;;;;;;10.28;45.82;101816.53;3386928;29;20046;-73
2021/10/09 03:21:32;;;;;;;27.50;13.88;;;;;;;10.32;45.84;101825.91;3377221;29;20301;-71
2021/10/09 03:23:12;;;;;;;26.33;15.43;;;;;;;10.35;45.57;101825.66;3375040;29;20048;-73
2021/10/09 03:24:53;;;;;;;24.25;15.40;;;;;;;10.38;45.54;101828.03;3375135;29;20465;-73
2021/10/09 03:26:33;;;;;;;28.85;16.33;;;;;;;10.39;45.59;101821.72;3373894;29;20179;-73
2021/10/09 03:28:14;;;;;;;24.95;16.00;;;;;;;10.44;45.39;101826.63;3384130;29;20062;-73
2021/10/09 03:29:58;;;;;;;22.20;14.38;;;;;;;10.43;44.85;101832.94;3373905;29;20127;-72
2021/10/09 03:31:39;;;;;;;26.92;14.35;;;;;;;10.46;45.42;101833.50;3371537;29;20615;-73
2021/10/09 03:33:19;;;;;;;31.10;16.63;;;;;;;10.44;45.35;101824.78;3385924;29;20163;-73
2021/10/09 03:35:00;;;;;;;27.83;15.65;;;;;;;10.40;45.44;101826.06;3376358;29;20421;-72
2021/10/09 03:36:42;;;;;;;30.88;17.10;;;;;;;10.30;45.85;101830.56;3374002;29;20139;-72
2021/10/09 03:38:22;;;;;;;29.98;17.00;;;;;;;10.13;46.02;101825.88;3373555;29;20512;-73
2021/10/09 03:40:08;;;;;;;29.40;17.52;;;;;;;9.93;46.35;101825.84;3373935;29;20045;-73
2021/10/09 03:41:54;;;;;;;28.08;15.65;;;;;;;9.74;46.86;101826.66;3376089;29;20194;-72
2021/10/09 03:43:35;;;;;;;30.42;14.98;;;;;;;9.78;46.95;101833.41;3374555;29;20041;-72
2021/10/09 03:47:17;;;;;;;30.73;16.75;;;;;;;9.93;46.64;101828.50;3376292;29;20141;-73
2021/10/09 03:52:49;;;;;;;25.60;16.75;;;;;;;10.19;45.96;101842.16;3376274;29;20041;-72
2021/10/09 03:54:30;;;;;;;24.65;16.20;;;;;;;10.23;45.63;101830.25;3386557;29;20148;-73
2021/10/09 03:56:11;;;;;;;28.75;15.35;;;;;;;10.30;45.68;101832.38;3379480;29;20124;-72
2021/10/09 03:57:56;;;;;;;24.77;15.05;;;;;;;10.34;45.66;101831.13;3377107;29;20048;-72
2021/10/09 03:59:37;;;;;;;29.73;14.70;;;;;;;10.36;45.77;101834.50;3377277;29;20128;-69
2021/10/09 04:01:17;;;;;;;23.48;13.75;;;;;;;10.37;45.48;101834.34;3377089;29;20055;-71
2021/10/09 04:02:58;;;;;;;27.58;14.80;;;;;;;10.41;45.45;101829.59;3376070;29;20041;-71
2021/10/09 04:04:40;;;;;;;22.02;14.10;;;;;;;10.42;45.34;101828.59;3373827;29;20065;-71
2021/10/09 04:06:20;;;;;;;27.23;14.35;;;;;;;10.50;45.15;101838.53;3373315;29;20157;-72
2021/10/09 04:08:06;;;;;;;25.25;15.70;;;;;;;10.51;45.04;101832.22;3373829;29;20044;-72
2021/10/09 04:09:47;;;;;;;22.67;13.80;;;;;;;10.49;45.16;101821.72;3373868;29;20053;-71
2021/10/09 04:11:28;;;;;;;26.33;14.55;;;;;;;10.50;45.26;101830.56;3386312;29;20468;-71
2021/10/09 04:13:09;;;;;;;32.63;14.95;;;;;;;10.45;45.12;101831.84;3379228;29;20044;-72
2021/10/09 04:14:49;;;;;;;23.65;14.70;;;;;;;10.46;45.44;101832.66;3375678;29;20533;-72
2021/10/09 04:16:31;;;;;;;24.38;15.13;;;;;;;10.50;45.37;101833.22;3373099;29;20607;-71
2021/10/09 04:18:12;;;;;;;28.00;14.63;;;;;;;10.50;45.34;101830.56;3373446;29;20077;-73
2021/10/09 04:19:54;;;;;;;23.88;15.55;;;;;;;10.40;45.23;101826.06;3376026;29;20052;-71
2021/10/09 04:21:34;;;;;;;24.95;13.00;;;;;;;10.47;45.85;101829.00;3386334;29;20039;-72
2021/10/09 04:23:16;;;;;;;19.50;12.70;;;;;;;10.61;45.53;101831.25;3375809;29;20045;-73
2021/10/09 04:24:57;;;;;;;24.88;13.43;;;;;;;10.66;45.66;101829.00;3376793;29;20548;-72
2021/10/09 04:26:38;;;;;;;19.77;12.50;;;;;;;10.65;45.51;101832.63;3375891;29;20595;-72
2021/10/09 04:28:19;;;;;;;21.02;12.90;;;;;;;10.66;45.22;101839.66;3376452;29;20048;-72
2021/10/09 04:30:00;;;;;;;21.10;11.77;;;;;;;10.69;45.41;101833.22;3375865;29;20124;-72
2021/10/09 04:31:41;;;;;;;19.88;12.52;;;;;;;10.73;45.19;101829.25;3374042;29;20055;-73
2021/10/09 04:33:22;;;;;;;24.10;12.65;;;;;;;10.74;45.18;101835.44;3386428;29;20610;-72
2021/10/09 04:35:03;;;;;;;25.75;12.55;;;;;;;10.70;45.17;101830.38;3376820;29;20041;-72
2021/10/09 04:36:43;;;;;;;21.10;12.37;;;;;;;10.74;44.95;101830.09;3375365;29;20108;-72
2021/10/09 04:38:24;;;;;;;19.85;12.00;;;;;;;10.80;45.06;101833.03;3375460;29;20304;-73
2021/10/09 04:40:06;;;;;;;24.58;11.38;;;;;;;10.86;44.94;101832.47;3375558;29;20092;-72
2021/10/09 04:41:51;;;;;;;22.00;11.75;;;;;;;10.93;44.99;101826.56;3376533;29;20055;-72
2021/10/09 04:43:32;;;;;;;16.65;11.48;;;;;;;10.93;44.75;101829.22;3363164;29;20041;-72
2021/10/09 04:45:13;;;;;;;20.17;13.07;;;;;;;10.97;44.73;101835.94;3374877;29;20044;-71
2021/10/09 04:46:59;;;;;;;17.70;11.25;;;;;;;11.04;44.51;101842.41;3375702;29;20040;-71
2021/10/09 04:48:40;;;;;;;22.42;12.32;;;;;;;11.07;44.53;101842.09;3373070;29;20150;-72
2021/10/09 04:50:21;;;;;;;21.10;12.10;;;;;;;11.10;44.50;101842.66;3373039;29;20075;-74
2021/10/09 04:52:03;;;;;;;21.23;12.00;;;;;;;11.16;44.70;101846.59;3373128;29;20067;-74
2021/10/09 04:53:44;;;;;;;18.77;10.73;;;;;;;11.24;45.06;101845.84;3373040;29;20539;-76
2021/10/09 04:55:25;;;;;;;20.45;11.18;;;;;;;11.38;45.16;101844.53;3376469;29;20131;-76
2021/10/09 04:57:06;;;;;;;18.67;10.25;;;;;;;11.59;45.32;101831.81;3375340;29;20127;-77
2021/10/09 04:58:47;;;;;;;;;;;;;;;11.86;44.61;101832.78;3373422;29;20147;-77
2021/10/09 05:00:28;;;;;;;14.57;9.10;;;;;;;11.95;44.66;101831.88;3372974;29;20442;-77
2021/10/09 05:02:09;;;;;;;19.83;11.07;;;;;;;12.03;44.49;101837.34;3373073;29;20132;-78
2021/10/09 05:03:51;;;;;;;20.25;10.52;;;;;;;12.09;44.36;101843.91;3373036;29;20131;-78
2021/10/09 05:05:33;;;;;;;16.48;10.60;;;;;;;12.11;44.38;101837.44;3372970;29;20107;-79
2021/10/09 05:07:14;;;;;;;21.30;11.57;;;;;;;12.20;44.19;101846.34;3375433;29;20105;-78
2021/10/09 05:08:55;;;;;;;23.88;10.38;;;;;;;12.38;44.36;101843.69;3373133;29;20064;-79
2021/10/09 05:10:38;;;;;;;17.55;10.43;;;;;;;12.51;43.60;101843.31;3347298;29;20048;-77
2021/10/09 05:12:23;;;;;;;25.95;11.25;;;;;;;12.60;43.35;101843.22;3369876;29;20132;-77
2021/10/09 05:14:04;;;;;;;19.98;12.55;;;;;;;12.63;42.78;101837.56;3372911;29;20508;-78
2021/10/09 05:15:46;;;;;;;20.98;11.35;;;;;;;12.76;43.11;101841.66;3359801;29;20048;-80
2021/10/09 05:17:33;;;;;;;20.27;11.43;;;;;;;12.81;42.80;101831.34;3359191;29;20160;-79
2021/10/09 05:19:15;;;;;;;18.38;11.70;;;;;;;12.98;42.52;101846.50;3384270;29;20054;-78
2021/10/09 05:20:55;;;;;;;27.65;12.63;;;;;;;13.14;42.11;101842.25;3375807;29;20108;-77
2021/10/09 05:22:38;;;;;;;21.75;11.43;;;;;;;13.36;41.67;101844.41;3376563;29;20103;-77
2021/10/09 05:24:19;;;;;;;21.30;10.25;;;;;;;13.53;41.42;101840.81;3375178;29;20073;-74
2021/10/09 05:26:00;;;;;;;20.40;10.90;;;;;;;13.67;41.18;101841.19;3373107;29;20080;-75
2021/10/09 05:27:54;;;;;;;18.70;11.05;;;;;;;13.81;40.98;101840.59;3395489;29;20048;-78
2021/10/09 05:29:35;;;;;;;21.55;10.07;;;;;;;13.99;40.87;101843.13;3385000;29;20082;-77
2021/10/09 05:31:28;;;;;;;23.77;10.90;;;;;;;14.17;40.67;101832.28;3381900;29;20080;-75
2021/10/09 05:33:16;;;;;;;24.35;10.93;;;;;;;14.31;40.44;101834.31;3382780;29;20048;-77
2021/10/09 05:34:57;;;;;;;18.63;11.05;;;;;;;14.40;39.89;101836.00;3381666;29;20044;-76
2021/10/09 05:36:39;;;;;;;14.80;9.60;;;;;;;14.50;39.54;101833.13;3381392;29;20049;-76
2021/10/09 05:38:20;;;;;;;22.50;10.13;;;;;;;14.60;39.28;101827.66;3365160;29;20045;-75
2021/10/09 05:40:01;;;;;;;20.17;10.20;;;;;;;14.70;38.96;101831.00;3370491;29;20045;-77
2021/10/09 05:41:44;;;;;;;19.08;10.23;;;;;;;14.78;38.92;101830.16;3360111;29;20041;-75
2021/10/09 05:43:28;;;;;;;19.00;10.85;;;;;;;14.87;38.66;101834.50;3357349;29;20040;-76
2021/10/09 05:45:09;;;;;;;18.75;10.20;;;;;;;14.97;38.59;101826.25;3370683;29;20449;-76
2021/10/09 05:46:50;;;;;;;23.88;9.73;;;;;;;15.25;38.44;101842.81;3359525;29;20075;-76
2021/10/09 05:48:37;;;;;;;26.40;10.63;;;;;;;15.52;38.47;101832.66;3370676;29;20440;-77
2021/10/09 05:50:22;;;;;;;18.45;9.98;;;;;;;15.73;37.55;101835.63;3372854;29;20045;-78
2021/10/09 05:52:09;;;;;;;17.42;9.57;;;;;;;15.94;37.12;101836.84;3372736;29;20400;-73
2021/10/09 05:55:50;;;;;;;18.67;11.85;;;;;;;16.34;35.82;101827.66;3398406;29;20189;-73
2021/10/09 05:57:43;;;;;;;14.82;9.43;;;;;;;16.55;35.76;101829.69;3361963;29;20041;-73
2021/10/09 07:00:19;;;;;;;16.45;11.00;;;;;;;23.52;27.53;101835.38;3361307;29;20045;-71
2021/10/09 07:02:03;;;;;;;14.88;10.02;;;;;;;23.55;27.30;101833.25;3369470;29;20476;-72
2021/10/09 07:03:44;;;;;;;;;;;;;;;23.75;27.90;101838.47;3385055;29;20048;-71
2021/10/09 07:05:25;;;;;;;15.90;9.82;;;;;;;23.72;27.03;101834.31;3374230;29;19983;-73
2021/10/09 07:07:29;;;;;;;16.63;9.88;;;;;;;23.76;26.28;101835.53;3374237;29;20476;-72
2021/10/09 07:09:25;;;;;;;15.95;9.38;;;;;;;23.80;26.54;101823.13;3389395;29;20547;-74
2021/10/09 07:11:13;;;;;;;18.15;9.73;;;;;;;24.07;26.53;101826.28;3376908;29;20127;-73
2021/10/09 07:12:54;;;;;;;21.27;9.43;;;;;;;24.41;25.61;101829.31;3374705;29;20093;-74
2021/10/09 07:14:36;;;;;;;20.30;8.75;;;;;;;24.77;25.26;101822.03;3374571;29;20044;-72
2021/10/09 07:16:17;;;;;;;21.83;9.53;;;;;;;25.15;24.67;101824.28;3374204;29;20041;-73
2021/10/09 07:17:58;;;;;;;18.53;9.47;;;;;;;25.47;24.41;101826.59;3374356;29;20582;-73
2021/10/09 07:19:38;;;;;;;23.45;9.70;;;;;;;25.72;24.34;101826.28;3374246;29;20040;-72
2021/10/09 07:21:19;;;;;;;16.07;9.60;;;;;;;25.96;23.88;101824.31;3377312;29;20079;-71
2021/10/09 07:23:00;;;;;;;16.97;9.53;;;;;;;26.25;23.58;101824.28;3376703;29;20120;-74
2021/10/09 07:24:41;;;;;;;20.08;8.75;;;;;;;26.51;23.70;101829.09;3377510;29;20097;-70
2021/10/09 07:26:22;;;;;;;15.52;8.68;;;;;;;26.72;23.17;101818.53;3376409;29;20131;-72
2021/10/09 07:28:03;;;;;;;13.43;8.77;;;;;;;26.93;23.27;101825.13;3372227;29;20072;-73
2021/10/09 07:29:43;;;;;;;13.68;9.68;;;;;;;27.16;22.82;101819.41;3376048;29;20089;-73
2021/10/09 07:31:24;;;;;;;13.77;8.13;;;;;;;27.31;22.24;101813.34;3376665;29;20068;-72
2021/10/09 07:33:05;;;;;;;11.20;7.83;;;;;;;27.34;22.29;101810.09;3369255;29;20297;-74
2021/10/09 07:34:46;;;;;;;13.00;8.63;;;;;;;27.40;21.81;101806.31;3378351;29;20048;-72
2021/10/09 07:36:26;;;;;;;10.97;7.07;;;;;;;27.57;22.42;101802.66;3378391;29;20528;-74
2021/10/09 07:38:07;;;;;;;16.07;7.97;;;;;;;27.80;22.44;101807.88;3377336;29;20080;-70
2021/10/09 07:39:48;;;;;;;14.13;7.90;;;;;;;28.00;22.00;101803.69;3378057;29;20457;-73
2021/10/09 07:41:28;;;;;;;10.23;8.10;;;;;;;28.14;21.20;101804.94;3376615;29;20880;-72
2021/10/09 07:43:09;;;;;;;13.07;7.40;;;;;;;28.21;21.31;101804.72;3377557;29;20417;-73
2021/10/09 07:44:50;;;;;;;12.48;7.03;;;;;;;28.34;20.99;101800.69;3402897;29;20035;-75
2021/10/09 07:46:31;;;;;;;13.50;8.73;;;;;;;28.32;20.90;101792.75;3391942;29;20147;-73
2021/10/09 07:48:11;;;;;;;14.57;7.70;;;;;;;28.53;20.69;101799.25;3379658;29;20081;-73
2021/10/09 07:49:52;;;;;;;23.07;8.07;;;;;;;28.78;21.30;101803.22;3377521;29;20044;-77
2021/10/09 07:51:33;;;;;;;14.35;7.40;;;;;;;29.03;20.85;101803.38;3363723;29;20105;-74
2021/10/09 07:53:14;;;;;;;12.70;7.60;;;;;;;29.24;20.65;101803.50;3374597;29;20048;-73
2021/10/09 07:54:54;;;;;;;10.47;6.70;;;;;;;29.43;20.78;101801.09;3377509;29;20504;-75
2021/10/09 07:56:35;;;;;;;10.70;7.10;;;;;;;29.54;20.29;101802.81;3377309;29;20052;-74
2021/10/09 07:58:16;;;;;;;17.83;6.25;;;;;;;29.51;20.78;101804.16;3376856;29;20036;-75
2021/10/09 07:59:56;;;;;;;6.97;6.10;;;;;;;29.46;21.60;101795.91;3376296;29;20040;-74
2021/10/09 08:01:37;;;;;;;8.27;6.17;;;;;;;29.40;21.32;101802.47;3377068;29;20843;-74
2021/10/09 08:03:23;;;;;;;9.30;6.50;;;;;;;29.19;21.11;101784.25;3378030;29;20413;-75
2021/10/09 08:05:05;;;;;;;13.32;6.88;;;;;;;29.09;21.13;101802.38;3377004;29;20688;-75
2021/10/09 08:06:47;;;;;;;14.02;6.90;;;;;;;29.05;21.20;101801.22;3375900;29;20064;-76
2021/10/09 08:08:28;;;;;;;9.55;5.90;;;;;;;29.19;21.35;101793.31;3377025;29;20052;-75
2021/10/09 08:10:10;;;;;;;11.73;6.30;;;;;;;29.48;22.23;101795.63;3377245;29;20063;-74
2021/10/09 08:11:52;;;;;;;12.27;5.95;;;;;;;29.76;20.53;101802.59;3375964;29;20400;-75
2021/10/09 08:13:35;;;;;;;12.77;6.45;;;;;;;29.88;20.26;101796.84;3376975;29;20048;-73
2021/10/09 08:15:16;;;;;;;13.48;6.90;;;;;;;29.89;20.04;101802.06;3377102;29;20045;-73
2021/10/09 08:16:57;;;;;;;10.87;5.63;;;;;;;29.99;20.55;101802.06;3377486;29;20044;-79
2021/10/09 08:18:38;;;;;;;12.33;5.90;;;;;;;30.18;20.78;101793.31;3376979;29;20107;-77
2021/10/09 08:20:19;;;;;;;10.68;5.45;;;;;;;30.43;20.98;101793.31;3376181;29;20289;-74
2021/10/09 08:22:03;;;;;;;8.70;5.43;;;;;;;30.71;21.16;101793.81;3377261;29;20502;-75
2021/10/09 08:23:50;;;;;;;7.22;5.45;;;;;;;30.91;20.43;101786.66;3376983;29;20303;-77
2021/10/09 08:38:55;;;;;;;8.07;4.93;;;;;;;31.88;20.54;101799.94;3376763;29;20043;-77
2021/10/09 08:40:36;;;;;;;8.63;4.50;;;;;;;31.82;20.34;101796.41;3376890;29;20485;-74
2021/10/09 08:42:16;;;;;;;6.90;4.53;;;;;;;31.81;19.84;101810.50;3376853;29;20132;-76
2021/10/09 08:43:57;;;;;;;6.95;4.22;;;;;;;31.76;19.82;101799.50;3389106;29;20050;-76
2021/10/09 08:45:38;;;;;;;7.65;3.88;;;;;;;31.62;18.68;101800.13;3379762;29;20071;-76
2021/10/09 08:47:18;;;;;;;5.75;3.85;;;;;;;31.46;18.10;101804.88;3376648;29;20131;-76
2021/10/09 08:48:59;;;;;;;5.57;3.38;;;;;;;31.40;19.10;101805.22;3402428;29;20040;-79
2021/10/09 08:50:42;;;;;;;6.78;4.40;;;;;;;31.41;19.31;101801.34;3365730;29;20049;-74
2021/10/09 08:52:23;;;;;;;22.23;4.63;;;;;;;31.58;19.54;101795.47;3371237;29;20051;-79
2021/10/09 08:54:09;;;;;;;14.65;4.68;;;;;;;31.76;18.98;101797.56;3377482;29;20033;-78
2021/10/09 08:55:50;;;;;;;21.02;4.57;;;;;;;31.81;19.42;101799.47;3377563;29;20044;-77
2021/10/09 08:57:34;;;;;;;21.25;6.85;;;;;;;31.99;19.03;101796.06;3376221;29;20092;-75
2021/10/09 08:59:30;;;;;;;16.90;4.60;;;;;;;32.10;19.17;101803.13;3376647;29;20421;-75
2021/10/09 09:01:27;;;;;;;12.95;4.97;;;;;;;32.37;19.09;101791.59;3376739;29;20100;-76
2021/10/09 09:03:12;;;;;;;26.45;5.75;;;;;;;32.21;19.54;101794.75;3401768;29;20400;-75
2021/10/09 09:09:19;;;;;;;13.93;4.32;;;;;;;32.40;19.92;101787.44;3376784;29;20063;-76
2021/10/09 09:27:31;;;;;;;11.32;5.18;;;;;;;32.59;19.04;101765.44;3376076;29;20059;-74
2021/10/09 09:35:32;;;;;;;10.48;4.80;;;;;;;33.27;18.97;101752.50;3376217;29;20071;-73
2021/10/09 09:39:20;;;;;;;17.25;5.57;;;;;;;33.34;19.50;101755.72;3376002;29;20048;-75
2021/10/09 09:41:11;;;;;;;33.23;20.20;;;;;;;33.23;19.63;101761.38;3374932;29;20249;-72
2021/10/09 09:42:52;;;;;;;22.13;10.70;;;;;;;32.88;19.43;101757.09;3375492;29;20324;-72
2021/10/09 09:44:34;;;;;;;14.00;7.07;;;;;;;32.71;19.09;101756.75;3375882;29;20051;-73
2021/10/09 09:46:19;;;;;;;;;;;;;;;32.84;20.08;101758.81;3388419;29;20055;-72
2021/10/09 09:48:00;;;;;;;12.27;7.55;;;;;;;32.54;20.41;101747.00;3377843;29;19915;-73
2021/10/09 09:49:40;;;;;;;28.98;7.10;;;;;;;32.47;20.17;101752.00;3375948;29;20040;-72